createdAt,value
2023-01-30T00:03:51.246Z,99.90
2023-01-30T00:08:54.821Z,99.90
2023-01-30T00:13:58.367Z,99.90
2023-01-30T00:19:03.326Z,99.90
2023-01-30T00:24:07.101Z,99.90
2023-01-30T00:29:10.533Z,99.90
2023-01-30T00:34:15.475Z,99.90
2023-01-30T00:39:18.897Z,99.90
2023-01-30T00:44:41.777Z,99.90
2023-01-30T00:49:46.480Z,99.90
2023-01-30T00:54:51.488Z,99.90
2023-01-30T00:59:54.971Z,99.90
2023-01-30T01:04:59.692Z,99.90
2023-01-30T01:10:03.716Z,99.90
2023-01-30T01:15:08.243Z,99.90
2023-01-30T01:20:13.779Z,99.90
2023-01-30T01:25:19.662Z,99.90
2023-01-30T01:30:23.148Z,99.90
2023-01-30T01:35:27.953Z,99.90
2023-01-30T01:40:48.538Z,99.90
2023-01-30T01:45:56.561Z,99.90
2023-01-30T01:51:05.184Z,99.90
2023-01-30T01:56:09.520Z,99.90
2023-01-30T02:01:13.264Z,99.90
2023-01-30T02:06:20.762Z,99.90
2023-01-30T02:11:31.556Z,99.90
2023-01-30T02:16:35.087Z,99.90
2023-01-30T02:22:03.429Z,99.90
2023-01-30T02:27:30.042Z,99.90
2023-01-30T02:32:42.431Z,99.90
2023-01-30T02:37:54.206Z,99.90
2023-01-30T02:43:07.355Z,99.90
2023-01-30T02:48:17.539Z,99.90
2023-01-30T02:53:21.108Z,99.90
2023-01-30T02:58:26.664Z,99.90
2023-01-30T03:03:51.628Z,99.90
2023-01-30T03:09:07.395Z,99.90
2023-01-30T03:14:17.218Z,99.90
2023-01-30T03:19:22.947Z,99.90
2023-01-30T03:24:26.424Z,99.90
2023-01-30T03:29:29.844Z,99.90
2023-01-30T03:34:34.849Z,99.90
2023-01-30T03:39:38.444Z,99.90
2023-01-30T03:44:43.205Z,99.90
2023-01-30T03:49:48.588Z,99.90
2023-01-30T03:54:51.995Z,99.90
2023-01-30T03:59:55.375Z,99.90
2023-01-30T04:05:00.265Z,99.90
2023-01-30T04:10:04.278Z,99.90
2023-01-30T04:15:08.702Z,99.90
2023-01-30T04:20:33.777Z,99.90
2023-01-30T04:25:37.163Z,99.90
2023-01-30T04:30:44.021Z,99.90
2023-01-30T04:36:15.255Z,99.90
2023-01-30T04:41:20.675Z,99.90
2023-01-30T04:46:24.794Z,99.90
2023-01-30T04:51:29.928Z,99.90
2023-01-30T04:56:34.913Z,99.90
2023-01-30T05:01:40.150Z,99.90
2023-01-30T05:06:45.097Z,99.90
2023-01-30T05:11:48.504Z,99.90
2023-01-30T05:16:52.063Z,99.90
2023-01-30T05:21:56.775Z,99.90
2023-01-30T05:27:00.147Z,99.90
2023-01-30T05:32:04.807Z,99.90
2023-01-30T05:37:09.751Z,99.90
2023-01-30T05:42:13.139Z,99.90
2023-01-30T05:47:16.461Z,99.90
2023-01-30T05:52:21.139Z,99.90
2023-01-30T05:57:24.577Z,99.90
2023-01-30T06:02:27.947Z,99.90
2023-01-30T06:07:33.304Z,99.90
2023-01-30T06:12:36.606Z,99.90
2023-01-30T06:17:43.801Z,99.90
2023-01-30T06:22:49.411Z,99.90
2023-01-30T06:27:52.744Z,99.90
2023-01-30T06:32:56.094Z,99.90
2023-01-30T06:38:00.907Z,99.90
2023-01-30T06:43:04.331Z,99.90
2023-01-30T06:48:08.183Z,99.90
2023-01-30T06:53:13.470Z,99.90
2023-01-30T06:58:16.827Z,99.90
2023-01-30T07:03:20.214Z,99.90
2023-01-30T07:08:25.212Z,99.90
2023-01-30T07:13:28.518Z,99.90
2023-01-30T07:18:31.837Z,99.90
2023-01-30T07:23:36.734Z,99.90
2023-01-30T07:28:40.147Z,99.90
2023-01-30T07:33:43.528Z,99.90
2023-01-30T07:38:49.573Z,99.90
2023-01-30T07:43:52.949Z,99.90
2023-01-30T07:48:58.354Z,99.90
2023-01-30T07:54:05.058Z,99.90
2023-01-30T07:59:08.353Z,99.90
2023-01-30T08:04:12.253Z,99.90
2023-01-30T08:09:17.209Z,99.90
2023-01-30T08:14:20.517Z,99.90
2023-01-30T08:19:23.851Z,99.90
2023-01-30T08:24:28.539Z,99.90
2023-01-30T08:29:31.983Z,99.90
2023-01-30T08:34:36.075Z,99.90
2023-01-30T08:39:40.786Z,99.90
2023-01-30T08:44:44.331Z,99.90
2023-01-30T08:49:47.653Z,99.90
2023-01-30T08:54:54.243Z,99.90
2023-01-30T08:59:57.573Z,99.90
2023-01-30T09:05:00.851Z,99.90
2023-01-30T09:10:06.371Z,99.90
2023-01-30T09:15:11.422Z,99.90
2023-01-30T09:20:15.176Z,99.90
2023-01-30T09:25:20.090Z,99.90
2023-01-30T09:30:23.523Z,99.90
2023-01-30T09:35:26.872Z,99.90
2023-01-30T09:40:33.610Z,99.90
2023-01-30T09:46:04.583Z,99.90
2023-01-30T09:51:34.694Z,99.90
2023-01-30T09:56:39.409Z,99.90
2023-01-30T10:01:49.950Z,99.90
2023-01-30T10:07:07.062Z,99.90
2023-01-30T10:12:25.405Z,99.90
2023-01-30T10:17:38.264Z,99.90
2023-01-30T10:22:51.777Z,99.90
2023-01-30T10:28:02.029Z,99.90
2023-01-30T10:33:09.466Z,99.90
2023-01-30T10:38:20.876Z,99.90
2023-01-30T10:43:30.132Z,99.90
2023-01-30T10:48:53.028Z,99.90
2023-01-30T10:54:02.082Z,99.90
2023-01-30T10:59:22.084Z,99.90
2023-01-30T11:04:31.402Z,99.90
2023-01-30T11:09:42.923Z,99.90
2023-01-30T11:14:59.796Z,99.90
2023-01-30T11:20:08.913Z,99.90
2023-01-30T11:25:17.585Z,99.90
2023-01-30T11:30:27.852Z,99.90
2023-01-30T11:35:33.183Z,99.90
2023-01-30T11:40:39.859Z,99.90
2023-01-30T11:45:47.619Z,99.90
2023-01-30T11:50:56.031Z,99.90
2023-01-30T11:56:08.546Z,99.90
2023-01-30T12:01:16.533Z,99.90
2023-01-30T12:06:25.380Z,99.90
2023-01-30T12:11:32.292Z,99.90
2023-01-30T12:16:52.194Z,99.90
2023-01-30T12:22:02.570Z,1.00
2023-01-30T12:27:12.376Z,99.90
2023-01-30T12:32:20.256Z,99.90
2023-01-30T12:37:42.399Z,1.00
2023-01-30T12:43:07.327Z,1.00
2023-01-30T12:48:48.681Z,1.00
2023-01-30T12:54:05.650Z,1.00
2023-01-30T12:59:15.592Z,99.90
2023-01-30T13:04:31.242Z,99.90
2023-01-30T13:09:51.644Z,99.90
2023-01-30T13:15:00.650Z,99.90
2023-01-30T13:20:17.523Z,99.90
2023-01-30T13:25:28.982Z,99.90
2023-01-30T13:30:35.382Z,99.90
2023-01-30T13:35:52.479Z,99.90
2023-01-30T13:40:58.514Z,99.90
2023-01-30T13:46:05.354Z,99.90
2023-01-30T13:51:38.457Z,99.90
2023-01-30T13:56:46.862Z,99.90
2023-01-30T14:02:10.956Z,99.90
2023-01-30T14:07:21.907Z,99.90
2023-01-30T14:12:29.214Z,99.90
2023-01-30T14:17:32.798Z,99.90
2023-01-30T14:22:42.685Z,99.90
2023-01-30T14:27:46.026Z,99.90
2023-01-30T14:32:55.022Z,99.90
2023-01-30T14:38:15.305Z,99.90
2023-01-30T14:44:00.312Z,99.90
2023-01-30T14:49:06.986Z,99.90
2023-01-30T14:54:33.303Z,99.90
2023-01-30T15:00:02.803Z,99.90
2023-01-30T15:05:15.435Z,99.90
2023-01-30T15:10:38.756Z,99.90
2023-01-30T15:15:51.983Z,99.90
2023-01-30T15:21:24.137Z,99.90
2023-01-30T15:26:40.011Z,99.90
2023-01-30T15:31:55.391Z,99.90
2023-01-30T15:36:59.317Z,99.90
2023-01-30T15:42:08.986Z,99.90
2023-01-30T15:47:25.051Z,99.90
2023-01-30T15:52:40.089Z,99.90
2023-01-30T15:57:50.312Z,99.90
2023-01-30T16:02:54.207Z,99.90
2023-01-30T16:07:59.078Z,99.90
2023-01-30T16:13:05.313Z,99.90
2023-01-30T16:18:20.227Z,99.90
2023-01-30T16:23:28.730Z,99.90
2023-01-30T16:28:33.953Z,99.90
2023-01-30T16:33:37.561Z,99.90
2023-01-30T16:38:45.481Z,99.90
2023-01-30T16:44:20.900Z,99.90
2023-01-30T16:49:27.510Z,99.90
2023-01-30T16:54:33.322Z,99.90
2023-01-30T16:59:39.046Z,99.90
2023-01-30T17:04:43.390Z,99.90
2023-01-30T17:09:47.390Z,99.90
2023-01-30T17:14:52.286Z,99.90
2023-01-30T17:19:55.632Z,99.90
2023-01-30T17:25:03.200Z,99.90
2023-01-30T17:30:14.965Z,99.90
2023-01-30T17:35:19.033Z,99.90
2023-01-30T17:40:29.849Z,99.90
2023-01-30T17:45:34.874Z,99.90
2023-01-30T17:50:38.446Z,99.90
2023-01-30T17:55:42.131Z,99.90
2023-01-30T18:00:46.970Z,99.90
2023-01-30T18:05:50.325Z,98.50
2023-01-30T18:10:53.660Z,87.30
2023-01-30T18:16:00.959Z,53.50
2023-01-30T18:21:04.411Z,56.60
2023-01-30T18:26:07.694Z,47.20
2023-01-30T18:31:12.803Z,54.50
2023-01-30T18:36:19.328Z,34.60
2023-01-30T18:41:24.530Z,1.00
2023-01-30T18:46:30.306Z,1.00
2023-01-30T18:51:34.381Z,1.00
2023-01-30T18:56:38.778Z,1.00
2023-01-30T19:01:47.201Z,1.00
2023-01-30T19:06:50.546Z,1.00
2023-01-30T19:12:11.561Z,1.00
2023-01-30T19:17:17.296Z,1.00
2023-01-30T19:22:21.271Z,1.00
2023-01-30T19:27:26.001Z,1.00
2023-01-30T19:32:30.816Z,1.00
2023-01-30T19:37:34.158Z,1.00
2023-01-30T19:42:40.361Z,1.00
2023-01-30T19:47:48.893Z,1.00
2023-01-30T19:52:54.285Z,1.00
2023-01-30T19:57:58.318Z,1.00
2023-01-30T20:03:04.171Z,1.00
2023-01-30T20:08:07.724Z,1.00
2023-01-30T20:13:11.163Z,1.00
2023-01-30T20:18:16.679Z,1.00
2023-01-30T20:23:20.062Z,1.00
2023-01-30T20:28:23.428Z,1.00
2023-01-30T20:33:29.187Z,1.00
2023-01-30T20:38:33.159Z,1.00
2023-01-30T20:43:38.462Z,1.00
2023-01-30T20:48:44.108Z,1.00
2023-01-30T20:53:50.115Z,1.00
2023-01-30T20:58:54.620Z,1.00
2023-01-30T21:04:00.682Z,99.90
2023-01-30T21:09:04.946Z,99.90
2023-01-30T21:14:08.998Z,99.90
2023-01-30T21:19:16.614Z,1.00
2023-01-30T21:24:24.142Z,99.90
2023-01-30T21:29:29.869Z,99.90
2023-01-30T21:34:35.374Z,4.50
2023-01-30T21:39:56.740Z,1.00
2023-01-30T21:45:01.361Z,1.00
2023-01-30T21:50:07.462Z,1.00
2023-01-30T21:55:11.451Z,1.00
2023-01-30T22:00:15.944Z,1.00
2023-01-30T22:05:21.126Z,1.00
2023-01-30T22:10:24.986Z,1.00
2023-01-30T22:15:28.343Z,1.00
2023-01-30T22:20:33.122Z,1.00
2023-01-30T22:25:36.476Z,1.00
2023-01-30T22:30:39.888Z,1.00
2023-01-30T22:35:52.137Z,1.00
2023-01-30T22:41:03.363Z,1.00
2023-01-30T22:46:09.302Z,1.00
2023-01-30T22:51:16.594Z,1.00
2023-01-30T22:56:21.528Z,1.00
2023-01-30T23:01:26.544Z,1.00
2023-01-30T23:06:31.729Z,1.00
2023-01-30T23:11:37.054Z,1.00
2023-01-30T23:16:42.337Z,1.00
2023-01-30T23:21:47.674Z,1.00
2023-01-30T23:26:52.547Z,1.00
2023-01-30T23:31:55.936Z,1.00
2023-01-30T23:37:00.625Z,1.00
2023-01-30T23:42:04.035Z,1.00
2023-01-30T23:47:07.307Z,1.00
2023-01-30T23:52:13.478Z,1.00
2023-01-30T23:57:16.769Z,1.00
